sensor_id;sensor_type;location;lat;lon;timestamp;pressure;altitude;pressure_sealevel;temperature;humidity
75013;BME280;63567;49.956;20.130;2023-05-07T00:01:02;97106.03;;;11.30;78.81
75013;BME280;63567;49.956;20.130;2023-05-07T00:03:27;97106.41;;;11.27;78.45
75013;BME280;63567;49.956;20.130;2023-05-07T00:05:53;97108.88;;;11.29;78.10
75013;BME280;63567;49.956;20.130;2023-05-07T00:08:19;97099.50;;;11.26;78.09
75013;BME280;63567;49.956;20.130;2023-05-07T00:10:45;97086.81;;;11.08;78.35
75013;BME280;63567;49.956;20.130;2023-05-07T00:13:11;97111.84;;;11.19;78.35
75013;BME280;63567;49.956;20.130;2023-05-07T00:15:37;97112.47;;;11.21;78.03
75013;BME280;63567;49.956;20.130;2023-05-07T00:18:02;97117.53;;;11.23;78.08
75013;BME280;63567;49.956;20.130;2023-05-07T00:20:28;97072.09;;;10.99;77.71
75013;BME280;63567;49.956;20.130;2023-05-07T00:22:53;97113.28;;;11.22;77.65
75013;BME280;63567;49.956;20.130;2023-05-07T00:25:18;97110.00;;;11.20;77.44
75013;BME280;63567;49.956;20.130;2023-05-07T00:27:45;97111.63;;;11.21;77.68
75013;BME280;63567;49.956;20.130;2023-05-07T00:30:10;97118.56;;;11.22;77.76
75013;BME280;63567;49.956;20.130;2023-05-07T00:32:36;97118.72;;;11.20;77.25
75013;BME280;63567;49.956;20.130;2023-05-07T00:35:02;97126.47;;;11.22;77.77
75013;BME280;63567;49.956;20.130;2023-05-07T00:37:28;97111.00;;;11.19;77.63
75013;BME280;63567;49.956;20.130;2023-05-07T00:39:53;97125.66;;;11.21;78.19
75013;BME280;63567;49.956;20.130;2023-05-07T00:42:18;97117.28;;;11.18;77.90
75013;BME280;63567;49.956;20.130;2023-05-07T00:44:44;97127.44;;;11.21;77.72
75013;BME280;63567;49.956;20.130;2023-05-07T00:47:09;97123.38;;;11.18;77.67
75013;BME280;63567;49.956;20.130;2023-05-07T00:49:43;97134.72;;;11.19;77.85
75013;BME280;63567;49.956;20.130;2023-05-07T00:52:13;97080.97;;;10.92;78.18
75013;BME280;63567;49.956;20.130;2023-05-07T00:54:40;97127.84;;;11.18;78.09
75013;BME280;63567;49.956;20.130;2023-05-07T00:57:06;97103.56;;;11.01;78.19
75013;BME280;63567;49.956;20.130;2023-05-07T00:59:32;97128.03;;;11.16;78.12
75013;BME280;63567;49.956;20.130;2023-05-07T01:01:58;97128.41;;;11.13;77.94
75013;BME280;63567;49.956;20.130;2023-05-07T01:04:24;97128.41;;;11.13;77.96
75013;BME280;63567;49.956;20.130;2023-05-07T01:06:49;97126.34;;;11.08;78.06
75013;BME280;63567;49.956;20.130;2023-05-07T01:09:16;97135.88;;;11.09;77.85
75013;BME280;63567;49.956;20.130;2023-05-07T01:11:41;97131.41;;;11.10;78.13
75013;BME280;63567;49.956;20.130;2023-05-07T01:14:08;97135.88;;;11.09;77.89
75013;BME280;63567;49.956;20.130;2023-05-07T01:16:36;97135.88;;;11.09;77.74
75013;BME280;63567;49.956;20.130;2023-05-07T01:19:02;97130.78;;;11.08;77.98
75013;BME280;63567;49.956;20.130;2023-05-07T01:21:32;97127.72;;;11.04;78.08
75013;BME280;63567;49.956;20.130;2023-05-07T01:23:58;97135.41;;;11.06;77.99
75013;BME280;63567;49.956;20.130;2023-05-07T01:26:24;97129.56;;;11.04;78.01
75013;BME280;63567;49.956;20.130;2023-05-07T01:28:49;97131.97;;;11.05;78.20
75013;BME280;63567;49.956;20.130;2023-05-07T01:31:16;97129.56;;;11.04;77.76
75013;BME280;63567;49.956;20.130;2023-05-07T01:33:43;97135.19;;;11.01;77.71
75013;BME280;63567;49.956;20.130;2023-05-07T01:36:11;97131.09;;;10.98;78.29
75013;BME280;63567;49.956;20.130;2023-05-07T01:38:37;97141.47;;;11.00;77.95
75013;BME280;63567;49.956;20.130;2023-05-07T01:41:03;97137.38;;;10.97;77.89
75013;BME280;63567;49.956;20.130;2023-05-07T01:43:30;97132.31;;;10.96;77.72
75013;BME280;63567;49.956;20.130;2023-05-07T01:45:57;97123.78;;;10.94;77.89
75013;BME280;63567;49.956;20.130;2023-05-07T01:48:24;97127.41;;;10.93;77.93
75013;BME280;63567;49.956;20.130;2023-05-07T01:50:50;97138.56;;;10.95;77.98
75013;BME280;63567;49.956;20.130;2023-05-07T01:53:16;97137.94;;;10.93;77.91
75013;BME280;63567;49.956;20.130;2023-05-07T01:55:41;97135.69;;;10.89;77.96
75013;BME280;63567;49.956;20.130;2023-05-07T01:58:07;97135.88;;;10.88;77.89
75013;BME280;63567;49.956;20.130;2023-05-07T02:00:32;97136.88;;;10.87;78.05
75013;BME280;63567;49.956;20.130;2023-05-07T02:02:58;97134.59;;;10.84;78.37
75013;BME280;63567;49.956;20.130;2023-05-07T02:05:23;97136.81;;;10.80;78.23
75013;BME280;63567;49.956;20.130;2023-05-07T02:07:48;97139.00;;;10.77;78.09
75013;BME280;63567;49.956;20.130;2023-05-07T02:10:14;97128.63;;;10.75;78.02
75013;BME280;63567;49.956;20.130;2023-05-07T02:12:39;97137.38;;;10.76;78.26
75013;BME280;63567;49.956;20.130;2023-05-07T02:15:05;97136.75;;;10.74;78.42
75013;BME280;63567;49.956;20.130;2023-05-07T02:17:31;97132.22;;;10.67;78.49
75013;BME280;63567;49.956;20.130;2023-05-07T02:19:58;97137.09;;;10.71;78.48
75013;BME280;63567;49.956;20.130;2023-05-07T02:22:24;97141.13;;;10.66;78.46
75013;BME280;63567;49.956;20.130;2023-05-07T02:24:50;97129.88;;;10.58;78.05
75013;BME280;63567;49.956;20.130;2023-05-07T02:27:15;97137.03;;;10.64;78.39
75013;BME280;63567;49.956;20.130;2023-05-07T02:29:41;97140.69;;;10.63;78.31
75013;BME280;63567;49.956;20.130;2023-05-07T02:32:06;97144.31;;;10.62;78.10
75013;BME280;63567;49.956;20.130;2023-05-07T02:34:31;97148.13;;;10.59;78.08
75013;BME280;63567;49.956;20.130;2023-05-07T02:36:57;97149.50;;;10.55;78.28
75013;BME280;63567;49.956;20.130;2023-05-07T02:39:22;97149.88;;;10.52;78.74
75013;BME280;63567;49.956;20.130;2023-05-07T02:41:47;97148.78;;;10.46;78.66
75013;BME280;63567;49.956;20.130;2023-05-07T02:44:13;97152.63;;;10.44;78.58
75013;BME280;63567;49.956;20.130;2023-05-07T02:46:38;97149.72;;;10.39;78.66
75013;BME280;63567;49.956;20.130;2023-05-07T02:49:03;97156.16;;;10.36;78.40
75013;BME280;63567;49.956;20.130;2023-05-07T02:51:29;97152.25;;;10.32;79.13
75013;BME280;63567;49.956;20.130;2023-05-07T02:53:55;97144.88;;;10.27;79.16
75013;BME280;63567;49.956;20.130;2023-05-07T02:56:20;97161.34;;;10.30;78.76
75013;BME280;63567;49.956;20.130;2023-05-07T02:58:46;97157.59;;;10.24;79.12
75013;BME280;63567;49.956;20.130;2023-05-07T03:01:11;97153.16;;;10.24;78.66
75013;BME280;63567;49.956;20.130;2023-05-07T03:03:39;97157.97;;;10.21;78.78
75013;BME280;63567;49.956;20.130;2023-05-07T03:06:04;97160.97;;;10.18;78.76
75013;BME280;63567;49.956;20.130;2023-05-07T03:08:30;97163.94;;;10.15;78.56
75013;BME280;63567;49.956;20.130;2023-05-07T03:10:55;97159.22;;;10.10;78.68
75013;BME280;63567;49.956;20.130;2023-05-07T03:13:20;97163.06;;;10.07;78.39
75013;BME280;63567;49.956;20.130;2023-05-07T03:15:46;97167.84;;;10.04;78.58
75013;BME280;63567;49.956;20.130;2023-05-07T03:18:11;97173.31;;;10.02;78.73
75013;BME280;63567;49.956;20.130;2023-05-07T03:20:36;97174.66;;;9.98;78.70
75013;BME280;63567;49.956;20.130;2023-05-07T03:23:02;97175.66;;;9.97;78.93
75013;BME280;63567;49.956;20.130;2023-05-07T03:25:28;97177.47;;;9.97;78.86
75013;BME280;63567;49.956;20.130;2023-05-07T03:27:55;97178.03;;;9.92;78.87
75013;BME280;63567;49.956;20.130;2023-05-07T03:30:20;97187.75;;;9.92;78.93
75013;BME280;63567;49.956;20.130;2023-05-07T03:32:46;97189.25;;;9.86;78.84
75013;BME280;63567;49.956;20.130;2023-05-07T03:35:11;97194.25;;;9.81;79.18
75013;BME280;63567;49.956;20.130;2023-05-07T03:37:37;97187.72;;;9.77;79.30
75013;BME280;63567;49.956;20.130;2023-05-07T03:40:03;97186.53;;;9.79;78.67
75013;BME280;63567;49.956;20.130;2023-05-07T03:42:29;97192.34;;;9.75;79.14
75013;BME280;63567;49.956;20.130;2023-05-07T03:44:54;97204.47;;;9.76;79.45
75013;BME280;63567;49.956;20.130;2023-05-07T03:47:19;97202.84;;;9.75;79.24
75013;BME280;63567;49.956;20.130;2023-05-07T03:49:45;97209.47;;;9.71;79.34
75013;BME280;63567;49.956;20.130;2023-05-07T03:52:10;97208.66;;;9.70;78.81
75013;BME280;63567;49.956;20.130;2023-05-07T03:54:36;97206.72;;;9.64;79.32
75013;BME280;63567;49.956;20.130;2023-05-07T03:57:01;97215.81;;;9.61;79.58
75013;BME280;63567;49.956;20.130;2023-05-07T03:59:27;97213.00;;;9.63;79.03
75013;BME280;63567;49.956;20.130;2023-05-07T04:01:52;97209.53;;;9.62;79.54
75013;BME280;63567;49.956;20.130;2023-05-07T04:04:17;97213.97;;;9.62;79.16
75013;BME280;63567;49.956;20.130;2023-05-07T04:06:43;97215.00;;;9.61;79.47
75013;BME280;63567;49.956;20.130;2023-05-07T04:09:08;97225.50;;;9.61;78.97
75013;BME280;63567;49.956;20.130;2023-05-07T04:11:35;97221.41;;;9.58;79.15
75013;BME280;63567;49.956;20.130;2023-05-07T04:14:00;97221.28;;;9.52;79.65
75013;BME280;63567;49.956;20.130;2023-05-07T04:16:25;97214.75;;;9.48;79.28
75013;BME280;63567;49.956;20.130;2023-05-07T04:18:51;97228.38;;;9.51;79.24
75013;BME280;63567;49.956;20.130;2023-05-07T04:21:17;97227.72;;;9.49;79.83
75013;BME280;63567;49.956;20.130;2023-05-07T04:23:43;97228.25;;;9.44;79.81
75013;BME280;63567;49.956;20.130;2023-05-07T04:26:08;97226.00;;;9.41;79.83
75013;BME280;63567;49.956;20.130;2023-05-07T04:28:34;97227.13;;;9.39;79.52
75013;BME280;63567;49.956;20.130;2023-05-07T04:31:00;97230.41;;;9.41;79.78
75013;BME280;63567;49.956;20.130;2023-05-07T04:33:25;97237.84;;;9.37;79.85
75013;BME280;63567;49.956;20.130;2023-05-07T04:35:51;97237.22;;;9.35;79.73
75013;BME280;63567;49.956;20.130;2023-05-07T04:38:16;97246.28;;;9.33;80.19
75013;BME280;63567;49.956;20.130;2023-05-07T04:40:43;97248.69;;;9.34;79.82
75013;BME280;63567;49.956;20.130;2023-05-07T04:43:09;97250.03;;;9.30;79.60
75013;BME280;63567;49.956;20.130;2023-05-07T04:45:35;97254.97;;;9.33;79.97
75013;BME280;63567;49.956;20.130;2023-05-07T04:48:01;97258.94;;;9.29;79.48
75013;BME280;63567;49.956;20.130;2023-05-07T04:50:26;97254.47;;;9.30;80.02
75013;BME280;63567;49.956;20.130;2023-05-07T04:52:52;97258.13;;;9.29;79.33
75013;BME280;63567;49.956;20.130;2023-05-07T04:55:17;97262.53;;;9.28;79.87
75013;BME280;63567;49.956;20.130;2023-05-07T04:57:42;97266.34;;;9.25;80.14
75013;BME280;63567;49.956;20.130;2023-05-07T05:00:08;97269.31;;;9.22;80.12
75013;BME280;63567;49.956;20.130;2023-05-07T05:02:34;97263.25;;;9.22;79.98
75013;BME280;63567;49.956;20.130;2023-05-07T05:05:00;97268.69;;;9.20;80.08
75013;BME280;63567;49.956;20.130;2023-05-07T05:07:27;97272.28;;;9.19;79.90
75013;BME280;63567;49.956;20.130;2023-05-07T05:09:52;97274.63;;;9.14;79.97
75013;BME280;63567;49.956;20.130;2023-05-07T05:12:17;97275.63;;;9.13;80.09
75013;BME280;63567;49.956;20.130;2023-05-07T05:14:43;97281.41;;;9.09;79.87
75013;BME280;63567;49.956;20.130;2023-05-07T05:17:08;97279.75;;;9.08;79.93
75013;BME280;63567;49.956;20.130;2023-05-07T05:19:33;97282.75;;;9.04;79.71
75013;BME280;63567;49.956;20.130;2023-05-07T05:21:59;97285.19;;;9.06;79.58
75013;BME280;63567;49.956;20.130;2023-05-07T05:24:26;97298.84;;;9.01;80.28
75013;BME280;63567;49.956;20.130;2023-05-07T05:26:53;97291.09;;;9.00;80.11
75013;BME280;63567;49.956;20.130;2023-05-07T05:29:18;97295.56;;;8.99;79.97
75013;BME280;63567;49.956;20.130;2023-05-07T05:31:44;97307.06;;;8.98;80.37
75013;BME280;63567;49.956;20.130;2023-05-07T05:34:09;97298.38;;;8.98;79.72
75013;BME280;63567;49.956;20.130;2023-05-07T05:36:34;97305.78;;;8.94;79.93
75013;BME280;63567;49.956;20.130;2023-05-07T05:39:00;97305.94;;;8.93;79.96
75013;BME280;63567;49.956;20.130;2023-05-07T05:41:25;97307.91;;;8.91;79.40
75013;BME280;63567;49.956;20.130;2023-05-07T05:43:50;97306.44;;;8.88;79.55
75013;BME280;63567;49.956;20.130;2023-05-07T05:46:16;97313.34;;;8.89;79.66
75013;BME280;63567;49.956;20.130;2023-05-07T05:48:41;97313.50;;;8.88;80.11
75013;BME280;63567;49.956;20.130;2023-05-07T05:51:06;97316.47;;;8.84;80.16
75013;BME280;63567;49.956;20.130;2023-05-07T05:53:32;97311.41;;;8.83;80.27
75013;BME280;63567;49.956;20.130;2023-05-07T05:55:57;97327.16;;;8.83;80.17
75013;BME280;63567;49.956;20.130;2023-05-07T05:58:22;97321.41;;;8.79;80.67
75013;BME280;63567;49.956;20.130;2023-05-07T06:00:48;97328.94;;;8.82;79.95
75013;BME280;63567;49.956;20.130;2023-05-07T06:03:13;97336.38;;;8.79;80.36
75013;BME280;63567;49.956;20.130;2023-05-07T06:05:39;97329.47;;;8.78;80.10
75013;BME280;63567;49.956;20.130;2023-05-07T06:08:04;97333.41;;;8.74;80.19
75013;BME280;63567;49.956;20.130;2023-05-07T06:10:30;97340.31;;;8.75;80.50
75013;BME280;63567;49.956;20.130;2023-05-07T06:12:55;97338.19;;;8.70;79.89
75013;BME280;63567;49.956;20.130;2023-05-07T06:15:21;97342.00;;;8.68;80.62
75013;BME280;63567;49.956;20.130;2023-05-07T06:17:46;97344.63;;;8.68;80.05
75013;BME280;63567;49.956;20.130;2023-05-07T06:20:11;97348.22;;;8.67;80.46
75013;BME280;63567;49.956;20.130;2023-05-07T06:22:37;97352.16;;;8.62;80.32
75013;BME280;63567;49.956;20.130;2023-05-07T06:25:02;97352.66;;;8.58;80.43
75013;BME280;63567;49.956;20.130;2023-05-07T06:27:27;97357.25;;;8.56;80.58
75013;BME280;63567;49.956;20.130;2023-05-07T06:29:53;97366.81;;;8.57;80.46
75013;BME280;63567;49.956;20.130;2023-05-07T06:32:18;97365.13;;;8.56;80.34
75013;BME280;63567;49.956;20.130;2023-05-07T06:34:44;97357.13;;;8.49;80.67
75013;BME280;63567;49.956;20.130;2023-05-07T06:37:09;97358.13;;;8.48;80.27
75013;BME280;63567;49.956;20.130;2023-05-07T06:39:34;97367.63;;;8.49;80.64
75013;BME280;63567;49.956;20.130;2023-05-07T06:42:01;97361.88;;;8.46;80.52
75013;BME280;63567;49.956;20.130;2023-05-07T06:44:27;97360.41;;;8.43;80.77
75013;BME280;63567;49.956;20.130;2023-05-07T06:46:52;97362.22;;;8.42;80.06
75013;BME280;63567;49.956;20.130;2023-05-07T06:49:18;97358.59;;;8.43;80.45
75013;BME280;63567;49.956;20.130;2023-05-07T06:51:43;97374.53;;;8.42;80.66
75013;BME280;63567;49.956;20.130;2023-05-07T06:54:08;97370.91;;;8.43;80.56
75013;BME280;63567;49.956;20.130;2023-05-07T06:56:34;97368.28;;;8.43;80.27
75013;BME280;63567;49.956;20.130;2023-05-07T06:59:00;97373.84;;;8.40;80.21
75013;BME280;63567;49.956;20.130;2023-05-07T07:01:26;97378.44;;;8.38;80.25
75013;BME280;63567;49.956;20.130;2023-05-07T07:03:51;97378.13;;;8.41;80.38
75013;BME280;63567;49.956;20.130;2023-05-07T07:06:17;97386.31;;;8.38;80.44
75013;BME280;63567;49.956;20.130;2023-05-07T07:08:45;97382.69;;;8.39;80.48
75013;BME280;63567;49.956;20.130;2023-05-07T07:11:10;97385.50;;;8.37;80.45
75013;BME280;63567;49.956;20.130;2023-05-07T07:13:36;97393.69;;;8.34;80.38
75013;BME280;63567;49.956;20.130;2023-05-07T07:16:02;97382.72;;;8.31;80.46
75013;BME280;63567;49.956;20.130;2023-05-07T07:18:28;97401.25;;;8.29;80.30
75013;BME280;63567;49.956;20.130;2023-05-07T07:20:53;97404.19;;;8.34;80.14
75013;BME280;63567;49.956;20.130;2023-05-07T07:23:18;97409.44;;;8.34;80.43
75013;BME280;63567;49.956;20.130;2023-05-07T07:25:44;97406.81;;;8.34;80.38
75013;BME280;63567;49.956;20.130;2023-05-07T07:28:09;97410.59;;;8.32;80.05
75013;BME280;63567;49.956;20.130;2023-05-07T07:30:36;97414.03;;;8.32;80.03
75013;BME280;63567;49.956;20.130;2023-05-07T07:33:01;97417.31;;;8.34;80.54
75013;BME280;63567;49.956;20.130;2023-05-07T07:35:33;97421.09;;;8.32;79.88
75013;BME280;63567;49.956;20.130;2023-05-07T07:37:58;97415.53;;;8.27;80.26
75013;BME280;63567;49.956;20.130;2023-05-07T07:40:24;97430.94;;;8.30;80.37
75013;BME280;63567;49.956;20.130;2023-05-07T07:42:50;97431.09;;;8.28;80.31
75013;BME280;63567;49.956;20.130;2023-05-07T07:45:15;97433.72;;;8.28;80.01
75013;BME280;63567;49.956;20.130;2023-05-07T07:47:41;97429.47;;;8.27;80.21
75013;BME280;63567;49.956;20.130;2023-05-07T07:50:07;97439.28;;;8.25;80.40
75013;BME280;63567;49.956;20.130;2023-05-07T07:52:32;97440.09;;;8.26;80.11
75013;BME280;63567;49.956;20.130;2023-05-07T07:54:58;97437.47;;;8.26;80.23
75013;BME280;63567;49.956;20.130;2023-05-07T07:57:23;97440.09;;;8.26;80.13
75013;BME280;63567;49.956;20.130;2023-05-07T07:59:49;97442.25;;;8.22;80.17
75013;BME280;63567;49.956;20.130;2023-05-07T08:02:15;97437.16;;;8.20;80.23
75013;BME280;63567;49.956;20.130;2023-05-07T08:04:40;97448.16;;;8.24;79.87
75013;BME280;63567;49.956;20.130;2023-05-07T08:07:08;97448.16;;;8.24;79.93
75013;BME280;63567;49.956;20.130;2023-05-07T08:09:33;97452.56;;;8.23;80.08
75013;BME280;63567;49.956;20.130;2023-05-07T08:11:59;97453.41;;;8.24;80.02
75013;BME280;63567;49.956;20.130;2023-05-07T08:14:24;97457.34;;;8.20;79.82
75013;BME280;63567;49.956;20.130;2023-05-07T08:16:49;97451.44;;;8.18;80.47
75013;BME280;63567;49.956;20.130;2023-05-07T08:19:15;97460.28;;;8.17;79.76
75013;BME280;63567;49.956;20.130;2023-05-07T08:21:40;97467.00;;;8.19;80.20
75013;BME280;63567;49.956;20.130;2023-05-07T08:24:06;97467.84;;;8.20;79.79
75013;BME280;63567;49.956;20.130;2023-05-07T08:26:31;97468.97;;;8.17;79.80
75013;BME280;63567;49.956;20.130;2023-05-07T08:28:56;97470.78;;;8.17;80.14
75013;BME280;63567;49.956;20.130;2023-05-07T08:31:22;97472.44;;;8.18;79.81
75013;BME280;63567;49.956;20.130;2023-05-07T08:33:47;97475.06;;;8.18;80.10
75013;BME280;63567;49.956;20.130;2023-05-07T08:36:12;97477.03;;;8.16;79.69
75013;BME280;63567;49.956;20.130;2023-05-07T08:38:38;97482.28;;;8.16;79.76
75013;BME280;63567;49.956;20.130;2023-05-07T08:41:05;97489.28;;;8.15;80.14
75013;BME280;63567;49.956;20.130;2023-05-07T08:43:32;97490.44;;;8.13;80.17
75013;BME280;63567;49.956;20.130;2023-05-07T08:46:00;97489.47;;;8.14;80.03
75013;BME280;63567;49.956;20.130;2023-05-07T08:48:29;97496.34;;;8.15;80.21
75013;BME280;63567;49.956;20.130;2023-05-07T08:50:55;97491.91;;;8.15;80.22
75013;BME280;63567;49.956;20.130;2023-05-07T08:53:20;97497.84;;;8.09;80.45
75013;BME280;63567;49.956;20.130;2023-05-07T08:55:47;97497.00;;;8.09;79.86
75013;BME280;63567;49.956;20.130;2023-05-07T08:58:12;97490.94;;;8.08;80.08
75013;BME280;63567;49.956;20.130;2023-05-07T09:00:39;97504.56;;;8.12;80.16
75013;BME280;63567;49.956;20.130;2023-05-07T09:03:05;97507.19;;;8.12;80.11
75013;BME280;63567;49.956;20.130;2023-05-07T09:05:30;97507.34;;;8.10;79.83
75013;BME280;63567;49.956;20.130;2023-05-07T09:07:59;97501.59;;;8.07;79.84
75013;BME280;63567;49.956;20.130;2023-05-07T09:10:25;97508.81;;;8.05;80.02
75013;BME280;63567;49.956;20.130;2023-05-07T09:12:51;97506.50;;;8.01;79.65
75013;BME280;63567;49.956;20.130;2023-05-07T09:15:17;97517.31;;;8.07;79.74
75013;BME280;63567;49.956;20.130;2023-05-07T09:17:43;97513.72;;;8.08;79.96
75013;BME280;63567;49.956;20.130;2023-05-07T09:20:09;97515.53;;;8.07;79.34
75013;BME280;63567;49.956;20.130;2023-05-07T09:22:38;97521.94;;;8.05;79.62
75013;BME280;63567;49.956;20.130;2023-05-07T09:25:05;97523.56;;;8.06;79.88
75013;BME280;63567;49.956;20.130;2023-05-07T09:27:31;97534.06;;;8.06;80.16
75013;BME280;63567;49.956;20.130;2023-05-07T09:29:56;97531.28;;;8.07;80.13
75013;BME280;63567;49.956;20.130;2023-05-07T09:32:21;97537.50;;;8.06;79.87
75013;BME280;63567;49.956;20.130;2023-05-07T09:34:47;97533.53;;;8.02;80.14
75013;BME280;63567;49.956;20.130;2023-05-07T09:37:13;97541.13;;;8.05;79.99
75013;BME280;63567;49.956;20.130;2023-05-07T09:39:46;97538.50;;;8.05;79.56
75013;BME280;63567;49.956;20.130;2023-05-07T09:42:13;97538.78;;;8.02;80.18
75013;BME280;63567;49.956;20.130;2023-05-07T09:44:41;97542.94;;;8.05;80.09
75013;BME280;63567;49.956;20.130;2023-05-07T09:47:07;97535.50;;;8.00;80.17
75013;BME280;63567;49.956;20.130;2023-05-07T09:49:36;97549.00;;;8.05;80.05
75013;BME280;63567;49.956;20.130;2023-05-07T09:52:02;97553.75;;;8.10;79.74
75013;BME280;63567;49.956;20.130;2023-05-07T09:54:29;97553.88;;;8.00;80.38
75013;BME280;63567;49.956;20.130;2023-05-07T09:56:55;97561.75;;;8.00;80.27
75013;BME280;63567;49.956;20.130;2023-05-07T09:59:21;97560.78;;;8.01;80.65
75013;BME280;63567;49.956;20.130;2023-05-07T10:01:48;97560.63;;;8.02;80.60
75013;BME280;63567;49.956;20.130;2023-05-07T10:04:14;97560.44;;;8.04;80.22
75013;BME280;63567;49.956;20.130;2023-05-07T10:06:40;97562.41;;;8.02;79.94
75013;BME280;63567;49.956;20.130;2023-05-07T10:09:06;97568.97;;;8.06;80.06
75013;BME280;63567;49.956;20.130;2023-05-07T10:11:33;97565.41;;;8.07;80.17
75013;BME280;63567;49.956;20.130;2023-05-07T10:13:59;97563.59;;;8.08;79.77
75013;BME280;63567;49.956;20.130;2023-05-07T10:16:27;97571.31;;;8.09;80.05
75013;BME280;63567;49.956;20.130;2023-05-07T10:18:54;97568.69;;;8.09;79.88
75013;BME280;63567;49.956;20.130;2023-05-07T10:21:21;97571.97;;;8.11;79.76
75013;BME280;63567;49.956;20.130;2023-05-07T10:24:05;97576.38;;;8.11;79.89
75013;BME280;63567;49.956;20.130;2023-05-07T10:26:36;97580.16;;;8.08;79.61
75013;BME280;63567;49.956;20.130;2023-05-07T10:34:26;97585.72;;;8.05;79.66
75013;BME280;63567;49.956;20.130;2023-05-07T10:36:54;97585.06;;;8.03;79.59
75013;BME280;63567;49.956;20.130;2023-05-07T10:39:20;97591.28;;;8.02;79.49
75013;BME280;63567;49.956;20.130;2023-05-07T10:41:48;97592.25;;;8.01;80.10
75013;BME280;63567;49.956;20.130;2023-05-07T10:44:29;97594.56;;;8.04;80.00
75013;BME280;63567;49.956;20.130;2023-05-07T10:47:09;97605.91;;;8.05;79.73
75013;BME280;63567;49.956;20.130;2023-05-07T10:52:21;97603.72;;;8.00;80.05
75013;BME280;63567;49.956;20.130;2023-05-07T10:57:46;97596.84;;;7.99;80.05
75013;BME280;63567;49.956;20.130;2023-05-07T11:05:35;97613.53;;;7.98;79.78
75013;BME280;63567;49.956;20.130;2023-05-07T11:08:02;97609.97;;;7.99;79.56
75013;BME280;63567;49.956;20.130;2023-05-07T11:10:56;97612.44;;;8.00;79.77
75013;BME280;63567;49.956;20.130;2023-05-07T11:13:43;97611.78;;;7.98;79.47
75013;BME280;63567;49.956;20.130;2023-05-07T11:16:19;97613.72;;;7.96;80.14
75013;BME280;63567;49.956;20.130;2023-05-07T11:18:47;97612.25;;;7.94;80.13
75013;BME280;63567;49.956;20.130;2023-05-07T11:23:57;97625.19;;;7.95;79.83
75013;BME280;63567;49.956;20.130;2023-05-07T11:26:23;97622.56;;;7.95;79.79
75013;BME280;63567;49.956;20.130;2023-05-07T11:28:48;97621.59;;;7.96;79.96
75013;BME280;63567;49.956;20.130;2023-05-07T11:31:14;97623.56;;;7.94;79.99
75013;BME280;63567;49.956;20.130;2023-05-07T11:33:45;97612.53;;;7.91;79.58
75013;BME280;63567;49.956;20.130;2023-05-07T11:36:11;97621.91;;;7.93;79.93
75013;BME280;63567;49.956;20.130;2023-05-07T11:38:37;97622.88;;;7.92;79.81
75013;BME280;63567;49.956;20.130;2023-05-07T11:41:03;97623.69;;;7.93;79.84
75013;BME280;63567;49.956;20.130;2023-05-07T11:43:31;97627.13;;;7.93;79.55
75013;BME280;63567;49.956;20.130;2023-05-07T11:46:05;97622.88;;;7.92;79.71
75013;BME280;63567;49.956;20.130;2023-05-07T11:48:32;97634.84;;;7.95;79.64
75013;BME280;63567;49.956;20.130;2023-05-07T11:51:05;97634.84;;;7.95;79.79
75013;BME280;63567;49.956;20.130;2023-05-07T11:53:42;97636.66;;;7.94;79.52
75013;BME280;63567;49.956;20.130;2023-05-07T11:56:16;97635.84;;;7.94;79.74
75013;BME280;63567;49.956;20.130;2023-05-07T11:58:42;97644.69;;;7.93;79.88
75013;BME280;63567;49.956;20.130;2023-05-07T12:01:09;97648.31;;;7.92;79.85
75013;BME280;63567;49.956;20.130;2023-05-07T12:03:36;97642.53;;;7.88;79.21
75013;BME280;63567;49.956;20.130;2023-05-07T12:06:07;97641.41;;;7.91;79.85
75013;BME280;63567;49.956;20.130;2023-05-07T12:08:36;97650.75;;;7.93;79.28
75013;BME280;63567;49.956;20.130;2023-05-07T12:11:02;97649.13;;;7.92;79.51
75013;BME280;63567;49.956;20.130;2023-05-07T12:13:27;97658.78;;;7.92;79.10
75013;BME280;63567;49.956;20.130;2023-05-07T12:15:54;97650.06;;;7.91;79.34
75013;BME280;63567;49.956;20.130;2023-05-07T12:18:20;97657.94;;;7.91;79.27
75013;BME280;63567;49.956;20.130;2023-05-07T12:20:46;97646.78;;;7.89;79.39
75013;BME280;63567;49.956;20.130;2023-05-07T12:23:12;97655.50;;;7.90;79.18
75013;BME280;63567;49.956;20.130;2023-05-07T12:25:39;97655.50;;;7.90;79.32
75013;BME280;63567;49.956;20.130;2023-05-07T12:28:05;97661.72;;;7.89;79.07
75013;BME280;63567;49.956;20.130;2023-05-07T12:30:40;97666.97;;;7.89;79.00
75013;BME280;63567;49.956;20.130;2023-05-07T12:33:06;97664.50;;;7.87;79.34
75013;BME280;63567;49.956;20.130;2023-05-07T12:35:32;97667.94;;;7.88;79.08
75013;BME280;63567;49.956;20.130;2023-05-07T12:38:01;97668.91;;;7.87;79.36
75013;BME280;63567;49.956;20.130;2023-05-07T12:40:36;97671.84;;;7.84;79.42
75013;BME280;63567;49.956;20.130;2023-05-07T12:43:02;97674.47;;;7.84;79.18
75013;BME280;63567;49.956;20.130;2023-05-07T12:45:28;97665.78;;;7.83;79.26
75013;BME280;63567;49.956;20.130;2023-05-07T12:47:53;97667.56;;;7.82;79.30
75013;BME280;63567;49.956;20.130;2023-05-07T12:50:19;97669.38;;;7.82;79.38
75013;BME280;63567;49.956;20.130;2023-05-07T12:52:47;97669.69;;;7.79;79.14
75013;BME280;63567;49.956;20.130;2023-05-07T12:55:14;97670.97;;;7.75;78.68
75013;BME280;63567;49.956;20.130;2023-05-07T12:57:43;97675.75;;;7.79;78.75
75013;BME280;63567;49.956;20.130;2023-05-07T13:00:09;97673.13;;;7.79;79.26
75013;BME280;63567;49.956;20.130;2023-05-07T13:02:38;97674.28;;;7.77;78.77
75013;BME280;63567;49.956;20.130;2023-05-07T13:05:04;97678.38;;;7.79;78.90
75013;BME280;63567;49.956;20.130;2023-05-07T13:07:30;97681.16;;;7.78;79.25
75013;BME280;63567;49.956;20.130;2023-05-07T13:09:55;97687.06;;;7.80;79.07
75013;BME280;63567;49.956;20.130;2023-05-07T13:12:20;97687.88;;;7.80;78.57